createdAt,value
2023-04-15T00:01:48.758Z,97365.84
2023-04-15T00:04:15.594Z,97359.94
2023-04-15T00:06:42.290Z,97366.09
2023-04-15T00:09:09.063Z,97360.91
2023-04-15T00:11:35.845Z,97358.56
2023-04-15T00:14:02.548Z,97358.09
2023-04-15T00:16:29.387Z,97358.88
2023-04-15T00:18:57.109Z,97358.22
2023-04-15T00:21:23.716Z,97356.94
2023-04-15T00:34:00.698Z,97362.56
2023-04-15T00:36:27.903Z,97356.25
2023-04-15T00:38:54.783Z,97354.47
2023-04-15T00:41:21.646Z,97353.00
2023-04-15T00:43:48.290Z,97355.09
2023-04-15T00:46:17.557Z,97359.69
2023-04-15T00:48:44.360Z,97356.78
2023-04-15T00:51:11.027Z,97347.94
2023-04-15T00:53:37.801Z,97352.59
2023-04-15T00:56:04.843Z,97356.47
2023-04-15T00:58:31.495Z,97349.75
2023-04-15T01:00:59.260Z,97349.25
2023-04-15T01:03:26.172Z,97353.66
2023-04-15T01:05:58.416Z,97350.69
2023-04-15T01:08:29.126Z,97354.06
2023-04-15T01:10:57.573Z,97350.38
2023-04-15T01:13:25.147Z,97348.41
2023-04-15T01:15:52.612Z,97351.13
2023-04-15T01:18:19.998Z,97350.81
2023-04-15T01:20:46.911Z,97350.56
2023-04-15T01:23:13.834Z,97347.97
2023-04-15T01:25:42.117Z,97355.94
2023-04-15T01:28:09.758Z,97351.72
2023-04-15T01:30:36.886Z,97362.97
2023-04-15T01:33:03.615Z,97361.69
2023-04-15T01:35:30.198Z,97352.00
2023-04-15T01:38:08.658Z,97347.59
2023-04-15T01:40:36.182Z,97351.66
2023-04-15T01:43:04.009Z,97349.84
2023-04-15T01:45:30.735Z,97355.66
2023-04-15T01:47:57.611Z,97352.28
2023-04-15T01:50:24.338Z,97345.03
2023-04-15T01:52:51.295Z,97346.19
2023-04-15T01:55:17.933Z,97343.88
2023-04-15T01:57:44.664Z,97341.56
2023-04-15T02:00:11.823Z,97340.78
2023-04-15T02:02:39.175Z,97335.38
2023-04-15T02:05:06.393Z,97339.72
2023-04-15T02:07:33.048Z,97342.63
2023-04-15T02:09:59.759Z,97333.13
2023-04-15T02:12:26.409Z,97336.44
2023-04-15T02:14:53.661Z,97336.06
2023-04-15T02:17:20.319Z,97336.22
2023-04-15T02:19:46.975Z,97333.34
2023-04-15T02:22:18.680Z,97336.13
2023-04-15T02:24:46.880Z,97338.84
2023-04-15T02:27:17.891Z,97339.66
2023-04-15T02:29:45.979Z,97340.06
2023-04-15T02:32:13.398Z,97331.78
2023-04-15T02:34:41.672Z,97335.66
2023-04-15T02:37:13.190Z,97335.72
2023-04-15T02:39:40.026Z,97333.66
2023-04-15T02:42:06.739Z,97337.97
2023-04-15T02:44:34.459Z,97338.78
2023-04-15T02:47:01.148Z,97337.25
2023-04-15T02:55:02.926Z,97330.72
2023-04-15T02:57:29.902Z,97334.31
2023-04-15T02:59:56.571Z,97325.47
2023-04-15T03:02:23.549Z,97328.75
2023-04-15T03:04:50.256Z,97331.34
2023-04-15T03:07:18.239Z,97341.00
2023-04-15T03:09:46.090Z,97337.66
2023-04-15T03:12:12.780Z,97338.50
2023-04-15T03:14:39.422Z,97345.03
2023-04-15T03:17:06.162Z,97342.44
2023-04-15T03:19:33.249Z,97342.69
2023-04-15T03:21:59.947Z,97338.44
2023-04-15T03:24:26.653Z,97336.78
2023-04-15T03:26:53.438Z,97333.72
2023-04-15T03:29:20.136Z,97327.25
2023-04-15T03:31:47.154Z,97336.63
2023-04-15T03:34:13.797Z,97335.06
2023-04-15T03:36:40.849Z,97326.94
2023-04-15T03:39:07.526Z,97333.94
2023-04-15T03:41:34.216Z,97333.94
2023-04-15T03:44:00.914Z,97335.38
2023-04-15T03:46:28.108Z,97333.94
2023-04-15T03:48:54.792Z,97329.69
2023-04-15T03:51:21.656Z,97328.09
2023-04-15T03:53:48.344Z,97319.63
2023-04-15T03:56:15.037Z,97326.38
2023-04-15T03:58:41.748Z,97329.09
2023-04-15T04:01:08.666Z,97325.25
2023-04-15T04:03:35.596Z,97330.41
2023-04-15T04:06:02.414Z,97329.81
2023-04-15T04:08:29.045Z,97320.75
2023-04-15T04:10:55.709Z,97337.22
2023-04-15T04:13:22.319Z,97333.78
2023-04-15T04:15:49.096Z,97347.09
2023-04-15T04:18:15.832Z,97344.66
2023-04-15T04:20:42.712Z,97342.50
2023-04-15T04:23:09.386Z,97346.41
2023-04-15T04:28:13.036Z,97353.44
2023-04-15T04:30:40.767Z,97353.16
2023-04-15T04:33:07.872Z,97349.63
2023-04-15T04:35:37.802Z,97355.81
2023-04-15T04:38:04.834Z,97351.94
2023-04-15T04:40:31.555Z,97352.09
2023-04-15T04:42:58.304Z,97352.72
2023-04-15T04:45:24.996Z,97357.59
2023-04-15T04:47:51.740Z,97354.44
2023-04-15T04:50:18.363Z,97353.88
2023-04-15T04:52:45.048Z,97358.81
2023-04-15T04:55:11.878Z,97362.34
2023-04-15T04:57:39.795Z,97361.53
2023-04-15T05:00:08.717Z,97366.78
2023-04-15T05:02:36.279Z,97362.34
2023-04-15T05:05:03.220Z,97362.16
2023-04-15T05:07:29.881Z,97360.16
2023-04-15T05:09:56.866Z,97353.72
2023-04-15T05:12:23.573Z,97355.94
2023-04-15T05:14:50.205Z,97353.81
2023-04-15T05:17:16.785Z,97354.72
2023-04-15T05:19:43.419Z,97354.56
2023-04-15T05:22:10.189Z,97353.31
2023-04-15T05:24:36.884Z,97351.97
2023-04-15T05:27:03.915Z,97355.19
2023-04-15T05:29:30.911Z,97349.25
2023-04-15T05:31:57.703Z,97362.50
2023-04-15T05:36:55.650Z,97369.97
2023-04-15T05:39:22.259Z,97368.66
2023-04-15T05:41:48.992Z,97369.00
2023-04-15T05:44:15.651Z,97370.66
2023-04-15T05:46:42.643Z,97374.84
2023-04-15T05:49:09.426Z,97372.75
2023-04-15T05:51:36.268Z,97378.44
2023-04-15T05:56:34.415Z,97375.97
2023-04-15T05:59:01.200Z,97380.00
2023-04-15T06:01:27.961Z,97382.94
2023-04-15T06:03:54.731Z,97382.81
2023-04-15T06:06:21.786Z,97391.38
2023-04-15T06:08:48.447Z,97378.91
2023-04-15T06:11:15.075Z,97395.56
2023-04-15T06:13:41.700Z,97386.03
2023-04-15T06:16:08.400Z,97392.09
2023-04-15T06:18:35.128Z,97384.19
2023-04-15T06:23:36.624Z,97386.09
2023-04-15T06:28:35.239Z,97394.78
2023-04-15T06:31:02.206Z,97393.91
2023-04-15T06:33:29.095Z,97397.00
2023-04-15T06:35:55.788Z,97399.41
2023-04-15T06:38:22.454Z,97401.00
2023-04-15T06:40:49.107Z,97400.09
2023-04-15T06:43:15.774Z,97407.47
2023-04-15T06:45:42.482Z,97410.28
2023-04-15T06:48:09.197Z,97406.06
2023-04-15T06:50:35.958Z,97415.31
2023-04-15T06:53:03.283Z,97411.31
2023-04-15T06:55:30.008Z,97403.47
2023-04-15T06:57:56.705Z,97402.91
2023-04-15T07:00:23.567Z,97405.03
2023-04-15T07:02:50.298Z,97406.00
2023-04-15T07:05:17.225Z,97413.34
2023-04-15T07:07:43.894Z,97407.84
2023-04-15T07:10:12.281Z,97405.41
2023-04-15T07:12:39.114Z,97404.13
2023-04-15T07:15:06.932Z,97406.81
2023-04-15T07:17:33.672Z,97395.44
2023-04-15T07:20:00.580Z,97400.38
2023-04-15T07:22:27.242Z,97392.09
2023-04-15T07:24:54.107Z,97397.03
2023-04-15T07:27:21.203Z,97403.00
2023-04-15T07:29:48.940Z,97398.09
2023-04-15T07:32:15.631Z,97404.91
2023-04-15T07:34:42.473Z,97400.88
2023-04-15T07:37:09.116Z,97403.53
2023-04-15T07:39:35.861Z,97400.63
2023-04-15T07:42:02.720Z,97397.13
2023-04-15T07:44:29.424Z,97394.22
2023-04-15T07:46:56.917Z,97395.25
2023-04-15T07:49:23.719Z,97397.19
2023-04-15T07:51:50.821Z,97398.56
2023-04-15T07:54:17.518Z,97401.63
2023-04-15T07:56:44.231Z,97395.53
2023-04-15T07:59:11.851Z,97395.94
2023-04-15T08:01:39.253Z,97394.97
2023-04-15T08:04:06.062Z,97388.47
2023-04-15T08:06:33.435Z,97387.38
2023-04-15T08:09:00.523Z,97385.00
2023-04-15T08:11:27.983Z,97391.66
2023-04-15T08:13:54.827Z,97386.53
2023-04-15T08:16:23.674Z,97377.84
2023-04-15T08:18:52.992Z,97382.53
2023-04-15T08:21:20.436Z,97376.31
2023-04-15T08:23:52.278Z,97381.78
2023-04-15T08:26:20.338Z,97384.00
2023-04-15T08:28:47.453Z,97385.53
2023-04-15T08:31:18.662Z,97386.28
2023-04-15T08:33:46.026Z,97394.56
2023-04-15T08:36:14.181Z,97383.50
2023-04-15T08:38:41.278Z,97396.72
2023-04-15T08:41:16.534Z,97391.09
2023-04-15T08:43:52.612Z,97393.25
2023-04-15T08:46:19.813Z,97387.28
2023-04-15T08:48:48.733Z,97383.28
2023-04-15T08:51:17.369Z,97387.38
2023-04-15T08:53:46.748Z,97390.59
2023-04-15T08:56:15.896Z,97381.44
2023-04-15T08:58:45.133Z,97388.91
2023-04-15T09:01:14.587Z,97385.28
2023-04-15T09:03:42.215Z,97385.63
2023-04-15T09:06:09.055Z,97383.81
2023-04-15T09:08:36.066Z,97394.13
2023-04-15T09:11:03.646Z,97384.03
2023-04-15T09:13:31.203Z,97385.56
2023-04-15T09:15:58.727Z,97390.97
2023-04-15T09:18:33.245Z,97388.75
2023-04-15T09:21:14.288Z,97389.91
2023-04-15T09:23:54.017Z,97398.84
2023-04-15T09:26:20.725Z,97400.44
2023-04-15T09:28:47.369Z,97402.66
2023-04-15T09:31:14.058Z,97412.41
2023-04-15T09:33:58.884Z,97399.41
2023-04-15T09:36:25.820Z,97411.22
2023-04-15T09:38:57.626Z,97407.88
2023-04-15T09:41:25.225Z,97410.41
2023-04-15T09:43:52.136Z,97413.00
2023-04-15T09:46:19.149Z,97409.56
2023-04-15T09:48:46.207Z,97406.13
2023-04-15T09:51:12.950Z,97413.44
2023-04-15T09:53:39.674Z,97408.50
2023-04-15T09:56:08.196Z,97411.78
2023-04-15T09:58:36.386Z,97406.13
2023-04-15T10:01:09.496Z,97411.41
2023-04-15T10:03:39.307Z,97412.84
2023-04-15T10:08:43.903Z,97406.53
2023-04-15T10:11:10.757Z,97409.84
2023-04-15T10:13:39.140Z,97406.50
2023-04-15T10:16:14.602Z,97405.00
2023-04-15T10:18:47.989Z,97417.19
2023-04-15T10:21:18.681Z,97416.16
2023-04-15T10:23:46.275Z,97422.28
2023-04-15T10:26:15.083Z,97414.16
2023-04-15T10:28:41.929Z,97420.38
2023-04-15T10:33:44.763Z,97419.25
2023-04-15T10:36:12.199Z,97422.78
2023-04-15T10:38:43.555Z,97425.78
2023-04-15T10:41:21.290Z,97424.16
2023-04-15T10:43:55.065Z,97428.31
2023-04-15T10:46:24.749Z,97424.66
2023-04-15T10:48:53.155Z,97429.56
2023-04-15T10:51:31.076Z,97432.63
2023-04-15T10:53:59.963Z,97426.66
2023-04-15T10:56:29.437Z,97425.41
2023-04-15T10:58:56.080Z,97433.34
2023-04-15T11:01:25.719Z,97420.13
2023-04-15T11:06:45.232Z,97429.69
2023-04-15T11:09:32.622Z,97428.72
2023-04-15T11:12:06.381Z,97433.38
2023-04-15T11:14:34.739Z,97425.94
2023-04-15T11:17:01.797Z,97425.34
2023-04-15T11:19:36.324Z,97426.06
2023-04-15T11:22:10.521Z,97423.41
2023-04-15T11:24:46.986Z,97428.47
2023-04-15T11:27:25.464Z,97435.50
2023-04-15T11:29:53.313Z,97422.78
2023-04-15T11:32:21.907Z,97431.06
2023-04-15T11:34:49.195Z,97433.28
2023-04-15T11:37:15.833Z,97430.19
2023-04-15T11:39:42.521Z,97435.38
2023-04-15T11:42:18.939Z,97427.53
2023-04-15T11:44:45.890Z,97434.56
2023-04-15T11:47:25.245Z,97439.84
2023-04-15T11:49:51.960Z,97447.94
2023-04-15T11:52:19.238Z,97445.00
2023-04-15T11:54:45.937Z,97440.94
2023-04-15T11:57:12.607Z,97444.66
2023-04-15T11:59:46.353Z,97456.00
2023-04-15T12:02:14.439Z,97458.59
2023-04-15T12:04:41.740Z,97465.16
2023-04-15T12:07:08.822Z,97487.75
2023-04-15T12:09:38.381Z,97491.84
2023-04-15T12:12:05.092Z,97485.41
2023-04-15T12:14:32.948Z,97492.19
2023-04-15T12:17:02.323Z,97483.78
2023-04-15T12:19:40.229Z,97489.44
2023-04-15T12:22:11.466Z,97482.03
2023-04-15T12:24:39.068Z,97492.56
2023-04-15T12:29:44.143Z,97514.69
2023-04-15T12:32:13.157Z,97531.72
2023-04-15T12:34:45.398Z,97539.25
2023-04-15T12:37:14.504Z,97542.44
2023-04-15T12:39:43.435Z,97541.72
2023-04-15T12:42:11.001Z,97555.00
2023-04-15T12:44:39.196Z,97567.56
2023-04-15T12:47:07.062Z,97569.13
2023-04-15T12:49:33.897Z,97569.91
2023-04-15T12:52:02.471Z,97574.22
2023-04-15T12:54:30.439Z,97575.44
2023-04-15T12:56:58.633Z,97572.28
2023-04-15T12:59:25.517Z,97569.16
2023-04-15T13:01:54.606Z,97572.63
2023-04-15T13:06:59.522Z,97573.44
2023-04-15T13:09:26.235Z,97576.56
2023-04-15T13:11:53.221Z,97576.94
2023-04-15T13:14:20.245Z,97576.94
2023-04-15T13:16:47.389Z,97578.88
2023-04-15T13:19:14.541Z,97583.09
2023-04-15T13:21:41.647Z,97585.41
2023-04-15T13:24:08.683Z,97586.97
2023-04-15T13:26:36.289Z,97582.72
2023-04-15T13:29:03.024Z,97594.03
2023-04-15T13:31:29.706Z,97587.69
2023-04-15T13:33:57.656Z,97601.03
2023-04-15T13:36:24.522Z,97596.28
2023-04-15T13:38:51.754Z,97597.00
2023-04-15T13:41:18.638Z,97599.03
2023-04-15T13:43:45.265Z,97594.44
2023-04-15T13:46:12.178Z,97602.66
2023-04-15T13:48:38.975Z,97608.88
2023-04-15T13:51:05.753Z,97607.75
2023-04-15T13:53:38.108Z,97603.06
2023-04-15T13:56:06.387Z,97605.03
2023-04-15T13:58:33.100Z,97608.16
2023-04-15T14:00:59.778Z,97598.75
2023-04-15T14:03:26.592Z,97603.47
2023-04-15T14:05:56.217Z,97606.22
2023-04-15T14:08:23.300Z,97615.59
2023-04-15T14:10:49.963Z,97617.97
2023-04-15T14:13:16.689Z,97616.75
2023-04-15T14:15:43.366Z,97624.63
2023-04-15T14:20:47.241Z,97623.06
2023-04-15T14:23:13.889Z,97630.88
2023-04-15T14:25:40.670Z,97630.91
2023-04-15T14:28:07.456Z,97624.66
2023-04-15T14:30:34.402Z,97635.59
2023-04-15T14:33:01.366Z,97648.88
2023-04-15T14:37:59.516Z,97652.81
2023-04-15T14:40:26.152Z,97654.34
2023-04-15T14:42:52.796Z,97657.47
2023-04-15T14:45:19.467Z,97670.75
2023-04-15T14:47:47.287Z,97667.63
2023-04-15T14:50:14.000Z,97673.88
2023-04-15T14:52:40.684Z,97669.56
2023-04-15T14:55:08.962Z,97672.31
2023-04-15T14:57:36.231Z,97668.78
2023-04-15T15:00:04.354Z,97677.78
2023-04-15T15:02:38.883Z,97682.84
2023-04-15T15:05:07.434Z,97689.13
2023-04-15T15:07:34.207Z,97691.84
2023-04-15T15:10:01.029Z,97686.00
2023-04-15T15:12:27.730Z,97698.47
2023-04-15T15:14:56.045Z,97707.84
2023-04-15T15:17:22.950Z,97714.47
2023-04-15T15:19:49.814Z,97721.88
2023-04-15T15:22:16.608Z,97723.78
2023-04-15T15:24:43.321Z,97730.06
2023-04-15T15:27:10.244Z,97734.34
2023-04-15T15:29:38.381Z,97728.44
2023-04-15T15:32:05.628Z,97737.81
2023-04-15T15:37:03.582Z,97730.41
2023-04-15T15:39:30.313Z,97737.81
2023-04-15T15:41:57.027Z,97751.06
2023-04-15T15:44:23.712Z,97749.88
2023-04-15T15:46:50.722Z,97751.44
2023-04-15T15:49:17.557Z,97756.13
2023-04-15T15:51:44.238Z,97762.78
2023-04-15T15:54:10.924Z,97768.22
2023-04-15T15:56:39.611Z,97769.78
2023-04-15T15:59:06.505Z,97766.63
2023-04-15T16:01:33.481Z,97773.63
2023-04-15T16:04:01.069Z,97788.44
2023-04-15T16:06:28.390Z,97785.63
2023-04-15T16:08:55.057Z,97793.78
2023-04-15T16:11:21.867Z,97806.94
2023-04-15T16:13:48.637Z,97813.06
2023-04-15T16:16:15.452Z,97812.22
2023-04-15T16:18:42.250Z,97817.63
2023-04-15T16:21:09.051Z,97814.31
2023-04-15T16:23:36.824Z,97823.19
2023-04-15T16:26:03.648Z,97815.00
2023-04-15T16:28:30.277Z,97811.50
2023-04-15T16:30:57.377Z,97821.31
2023-04-15T16:33:24.216Z,97826.63
2023-04-15T16:35:51.387Z,97824.28
2023-04-15T16:38:18.373Z,97832.13
2023-04-15T16:40:45.034Z,97837.56
2023-04-15T16:43:11.666Z,97838.25
2023-04-15T16:45:38.782Z,97839.00
2023-04-15T16:48:06.001Z,97846.03
2023-04-15T16:50:32.767Z,97851.81
2023-04-15T16:52:59.519Z,97848.66
2023-04-15T16:55:26.351Z,97859.88
2023-04-15T16:58:02.117Z,97861.31
2023-04-15T17:00:30.830Z,97861.59
2023-04-15T17:02:57.970Z,97869.84
2023-04-15T17:05:24.908Z,97863.63
2023-04-15T17:07:51.577Z,97875.34
2023-04-15T17:10:18.221Z,97872.13
2023-04-15T17:12:44.931Z,97877.97
2023-04-15T17:15:11.695Z,97880.69
2023-04-15T17:17:38.490Z,97874.81
2023-04-15T17:20:05.736Z,97892.69
2023-04-15T17:22:33.679Z,97892.13
2023-04-15T17:25:00.402Z,97899.94
2023-04-15T17:27:29.016Z,97902.13
2023-04-15T17:29:55.786Z,97906.56
2023-04-15T17:32:23.230Z,97915.03
2023-04-15T17:34:51.440Z,97912.94
2023-04-15T17:37:18.783Z,97920.56
2023-04-15T17:47:27.826Z,97925.00
2023-04-15T17:50:00.563Z,97931.81
2023-04-15T17:52:33.410Z,97937.31
2023-04-15T17:55:07.647Z,97941.69
2023-04-15T17:57:40.424Z,97943.38
2023-04-15T18:00:13.820Z,97941.75
2023-04-15T18:02:48.896Z,97943.28
2023-04-15T18:05:21.984Z,97943.63
2023-04-15T18:07:55.604Z,97947.25
2023-04-15T18:10:28.299Z,97951.13
2023-04-15T18:13:03.501Z,97960.91
2023-04-15T18:15:36.301Z,97963.41
2023-04-15T18:18:09.126Z,97965.75
2023-04-15T18:20:41.834Z,97976.22
2023-04-15T18:23:14.705Z,97973.91
2023-04-15T18:25:47.456Z,97977.31
2023-04-15T18:28:22.277Z,97978.72
2023-04-15T18:30:55.016Z,97982.16
2023-04-15T18:33:27.890Z,97990.19
2023-04-15T18:38:40.466Z,97993.06
2023-04-15T18:41:08.805Z,97998.50
2023-04-15T18:43:36.546Z,97999.50
2023-04-15T18:46:04.100Z,98006.59
2023-04-15T18:48:30.805Z,98002.78
2023-04-15T18:50:58.657Z,98009.25
2023-04-15T18:53:25.350Z,98013.53
2023-04-15T18:55:51.981Z,98010.38
2023-04-15T18:58:18.591Z,98013.97
2023-04-15T19:00:45.343Z,98019.06
2023-04-15T19:03:12.036Z,98025.84
2023-04-15T19:05:39.000Z,98027.16
2023-04-15T19:08:05.949Z,98036.78
2023-04-15T19:10:34.512Z,98038.22
2023-04-15T19:13:01.351Z,98030.56
2023-04-15T19:15:27.972Z,98040.34
2023-04-15T19:17:54.999Z,98036.78
2023-04-15T19:20:21.852Z,98048.50
2023-04-15T19:22:48.552Z,98044.50
2023-04-15T19:25:15.257Z,98039.16
2023-04-15T19:27:41.921Z,98052.25
2023-04-15T19:30:09.130Z,98060.84
2023-04-15T19:32:36.441Z,98061.22
2023-04-15T19:35:03.270Z,98056.56
2023-04-15T19:37:30.336Z,98058.69
2023-04-15T19:39:57.053Z,98057.88
2023-04-15T19:42:23.686Z,98058.44
2023-04-15T19:44:50.332Z,98060.16
2023-04-15T19:47:17.075Z,98063.53
2023-04-15T19:52:15.109Z,98073.63
2023-04-15T19:54:41.839Z,98069.38
2023-04-15T19:57:08.470Z,98069.69
2023-04-15T19:59:35.176Z,98065.44
2023-04-15T20:02:02.524Z,98062.03
2023-04-15T20:04:29.481Z,98072.59
2023-04-15T20:06:56.354Z,98075.63
2023-04-15T20:09:22.963Z,98074.03
2023-04-15T20:12:46.123Z,98070.47
2023-04-15T20:14:36.275Z,98068.84
2023-04-15T20:17:02.951Z,98060.53
2023-04-15T20:19:29.599Z,98062.88
2023-04-15T20:21:56.256Z,98069.59
2023-04-15T20:24:24.434Z,98066.03
2023-04-15T20:26:51.099Z,98062.38
2023-04-15T20:29:17.824Z,98068.16
2023-04-15T20:31:44.568Z,98068.38
2023-04-15T20:34:12.130Z,98063.31
2023-04-15T20:36:38.877Z,98068.16
2023-04-15T20:39:05.877Z,98061.81
2023-04-15T20:41:38.871Z,98067.31
2023-04-15T20:44:11.636Z,98068.16
2023-04-15T20:52:00.061Z,98080.22
2023-04-15T20:54:26.674Z,98080.72
2023-04-15T20:56:53.254Z,98090.09
2023-04-15T20:59:20.000Z,98088.59
2023-04-15T21:01:46.684Z,98083.13
2023-04-15T21:04:13.316Z,98098.53
2023-04-15T21:06:39.983Z,98092.31
2023-04-15T21:09:06.760Z,98088.38
2023-04-15T21:11:53.335Z,98094.97
2023-04-15T21:14:20.222Z,98092.38
2023-04-15T21:19:18.115Z,98103.13
2023-04-15T21:21:44.749Z,98106.97
2023-04-15T21:24:11.424Z,98112.56
2023-04-15T21:26:38.074Z,98107.06
2023-04-15T21:29:04.949Z,98116.06
2023-04-15T21:31:32.089Z,98113.28
2023-04-15T21:33:58.719Z,98118.53
2023-04-15T21:36:25.994Z,98118.34
2023-04-15T21:38:52.688Z,98125.63
2023-04-15T21:41:19.355Z,98121.03
2023-04-15T21:43:46.069Z,98123.81
2023-04-15T21:46:22.343Z,98127.97
2023-04-15T21:48:52.578Z,98133.22
2023-04-15T21:51:19.253Z,98134.28
2023-04-15T21:53:46.030Z,98132.56
2023-04-15T21:56:12.724Z,98130.25
2023-04-15T21:58:39.331Z,98132.19
2023-04-15T22:01:06.172Z,98138.50
2023-04-15T22:03:34.517Z,98139.50
2023-04-15T22:06:04.939Z,98143.28
2023-04-15T22:08:38.671Z,98148.00
2023-04-15T22:11:23.181Z,98145.22
2023-04-15T22:13:49.886Z,98145.06
2023-04-15T22:16:16.877Z,98153.84
2023-04-15T22:18:43.597Z,98153.06
2023-04-15T22:21:10.518Z,98154.63
2023-04-15T22:23:37.157Z,98161.72
2023-04-15T22:26:05.043Z,98169.66
2023-04-15T22:28:31.706Z,98164.63
2023-04-15T22:30:59.160Z,98171.16
2023-04-15T22:33:25.908Z,98164.06
2023-04-15T22:35:52.485Z,98173.16
2023-04-15T22:38:19.120Z,98172.78
2023-04-15T22:40:46.567Z,98173.22
2023-04-15T22:43:13.277Z,98173.44
2023-04-15T22:45:39.949Z,98174.22
2023-04-15T22:48:06.619Z,98176.72
2023-04-15T22:53:10.728Z,98178.31
2023-04-15T22:55:37.453Z,98183.16
2023-04-15T22:58:04.092Z,98185.19
2023-04-15T23:00:30.910Z,98184.13
2023-04-15T23:02:57.736Z,98188.53
2023-04-15T23:05:24.682Z,98181.59
2023-04-15T23:07:51.462Z,98191.34
2023-04-15T23:10:18.094Z,98191.06
2023-04-15T23:12:44.879Z,98185.88
2023-04-15T23:15:13.497Z,98192.34
2023-04-15T23:17:40.211Z,98190.28
2023-04-15T23:20:07.357Z,98195.66
2023-04-15T23:22:37.736Z,98199.72
2023-04-15T23:25:07.333Z,98205.09
2023-04-15T23:27:33.955Z,98208.81
2023-04-15T23:30:00.619Z,98204.53
2023-04-15T23:32:27.604Z,98205.81
2023-04-15T23:34:54.484Z,98207.66
2023-04-15T23:37:21.154Z,98206.53
2023-04-15T23:39:47.848Z,98206.44
2023-04-15T23:42:14.468Z,98207.16
2023-04-15T23:44:41.154Z,98209.25
2023-04-15T23:47:07.782Z,98206.38
2023-04-15T23:49:34.484Z,98208.81
2023-04-15T23:52:01.196Z,98211.09
2023-04-15T23:54:27.829Z,98213.09
2023-04-15T23:56:54.407Z,98215.03
2023-04-15T23:59:21.032Z,98211.69
